sensor_id;sensor_type;location;lat;lon;timestamp;P1;durP1;ratioP1;P2;durP2;ratioP2
78901;SDS011;70441;44.758;37.686;2024-03-22T00:00:26;24.15;;;11.75;;
78901;SDS011;70441;44.758;37.686;2024-03-22T00:01:27;25.83;;;11.80;;
78901;SDS011;70441;44.758;37.686;2024-03-22T00:02:28;23.05;;;10.38;;
78901;SDS011;70441;44.758;37.686;2024-03-22T00:03:30;21.00;;;9.63;;
78901;SDS011;70441;44.758;37.686;2024-03-22T00:04:32;28.23;;;12.20;;
78901;SDS011;70441;44.758;37.686;2024-03-22T00:05:34;22.33;;;11.88;;
78901;SDS011;70441;44.758;37.686;2024-03-22T00:06:35;26.73;;;11.00;;
78901;SDS011;70441;44.758;37.686;2024-03-22T00:07:36;22.83;;;10.63;;
78901;SDS011;70441;44.758;37.686;2024-03-22T00:08:39;20.00;;;9.05;;
78901;SDS011;70441;44.758;37.686;2024-03-22T00:10:43;19.08;;;9.48;;
78901;SDS011;70441;44.758;37.686;2024-03-22T00:11:44;22.25;;;10.55;;
78901;SDS011;70441;44.758;37.686;2024-03-22T00:12:45;23.40;;;10.45;;
78901;SDS011;70441;44.758;37.686;2024-03-22T00:13:47;24.95;;;9.38;;
78901;SDS011;70441;44.758;37.686;2024-03-22T00:14:49;24.85;;;10.18;;
78901;SDS011;70441;44.758;37.686;2024-03-22T00:15:52;24.80;;;12.02;;
78901;SDS011;70441;44.758;37.686;2024-03-22T00:16:53;23.83;;;11.75;;
78901;SDS011;70441;44.758;37.686;2024-03-22T00:17:56;25.80;;;10.80;;
78901;SDS011;70441;44.758;37.686;2024-03-22T00:18:57;25.58;;;11.10;;
78901;SDS011;70441;44.758;37.686;2024-03-22T00:19:59;21.85;;;10.20;;
78901;SDS011;70441;44.758;37.686;2024-03-22T00:21:01;24.90;;;11.27;;
78901;SDS011;70441;44.758;37.686;2024-03-22T00:22:03;21.90;;;8.90;;
78901;SDS011;70441;44.758;37.686;2024-03-22T00:23:05;19.45;;;9.23;;
78901;SDS011;70441;44.758;37.686;2024-03-22T00:24:06;25.83;;;10.80;;
78901;SDS011;70441;44.758;37.686;2024-03-22T00:25:08;21.85;;;10.52;;
78901;SDS011;70441;44.758;37.686;2024-03-22T00:26:09;26.65;;;11.95;;
78901;SDS011;70441;44.758;37.686;2024-03-22T00:27:10;27.58;;;13.93;;
78901;SDS011;70441;44.758;37.686;2024-03-22T00:28:13;23.00;;;12.02;;
78901;SDS011;70441;44.758;37.686;2024-03-22T00:29:14;21.02;;;8.85;;
78901;SDS011;70441;44.758;37.686;2024-03-22T00:30:16;18.80;;;8.23;;
78901;SDS011;70441;44.758;37.686;2024-03-22T00:31:17;24.65;;;11.60;;
78901;SDS011;70441;44.758;37.686;2024-03-22T00:32:19;24.45;;;12.38;;
78901;SDS011;70441;44.758;37.686;2024-03-22T00:33:21;28.85;;;12.10;;
78901;SDS011;70441;44.758;37.686;2024-03-22T00:34:22;25.27;;;10.02;;
78901;SDS011;70441;44.758;37.686;2024-03-22T00:35:23;24.50;;;12.25;;
78901;SDS011;70441;44.758;37.686;2024-03-22T00:36:25;27.67;;;11.68;;
78901;SDS011;70441;44.758;37.686;2024-03-22T00:37:26;24.38;;;12.80;;
78901;SDS011;70441;44.758;37.686;2024-03-22T00:38:29;29.73;;;11.63;;
78901;SDS011;70441;44.758;37.686;2024-03-22T00:39:30;23.33;;;11.00;;
78901;SDS011;70441;44.758;37.686;2024-03-22T00:40:32;24.95;;;12.35;;
78901;SDS011;70441;44.758;37.686;2024-03-22T00:41:34;24.33;;;11.20;;
78901;SDS011;70441;44.758;37.686;2024-03-22T00:42:35;24.05;;;11.48;;
78901;SDS011;70441;44.758;37.686;2024-03-22T00:43:37;22.15;;;10.10;;
78901;SDS011;70441;44.758;37.686;2024-03-22T00:44:38;26.98;;;11.60;;
78901;SDS011;70441;44.758;37.686;2024-03-22T00:45:41;31.85;;;12.73;;
78901;SDS011;70441;44.758;37.686;2024-03-22T00:46:43;24.33;;;11.07;;
78901;SDS011;70441;44.758;37.686;2024-03-22T00:47:44;22.60;;;10.57;;
78901;SDS011;70441;44.758;37.686;2024-03-22T00:48:46;21.60;;;10.07;;
78901;SDS011;70441;44.758;37.686;2024-03-22T00:49:47;24.80;;;11.35;;
78901;SDS011;70441;44.758;37.686;2024-03-22T00:50:48;25.83;;;11.27;;
78901;SDS011;70441;44.758;37.686;2024-03-22T00:51:50;26.33;;;11.90;;
78901;SDS011;70441;44.758;37.686;2024-03-22T00:52:51;23.67;;;10.00;;
78901;SDS011;70441;44.758;37.686;2024-03-22T00:53:53;22.35;;;10.63;;
78901;SDS011;70441;44.758;37.686;2024-03-22T00:54:54;26.73;;;11.68;;
78901;SDS011;70441;44.758;37.686;2024-03-22T00:55:56;26.00;;;9.38;;
78901;SDS011;70441;44.758;37.686;2024-03-22T00:56:59;21.20;;;9.38;;
78901;SDS011;70441;44.758;37.686;2024-03-22T00:58:01;21.45;;;9.52;;
78901;SDS011;70441;44.758;37.686;2024-03-22T00:59:02;23.25;;;11.30;;
78901;SDS011;70441;44.758;37.686;2024-03-22T01:00:04;26.75;;;10.43;;
78901;SDS011;70441;44.758;37.686;2024-03-22T01:01:05;18.85;;;9.48;;
78901;SDS011;70441;44.758;37.686;2024-03-22T01:02:07;23.23;;;10.48;;
78901;SDS011;70441;44.758;37.686;2024-03-22T01:03:08;21.70;;;10.07;;
78901;SDS011;70441;44.758;37.686;2024-03-22T01:04:10;18.25;;;8.85;;
78901;SDS011;70441;44.758;37.686;2024-03-22T01:05:12;20.30;;;9.63;;
78901;SDS011;70441;44.758;37.686;2024-03-22T01:06:13;20.05;;;8.75;;
78901;SDS011;70441;44.758;37.686;2024-03-22T01:07:14;21.80;;;9.38;;
78901;SDS011;70441;44.758;37.686;2024-03-22T01:08:16;23.23;;;9.98;;
78901;SDS011;70441;44.758;37.686;2024-03-22T01:09:17;19.67;;;9.65;;
78901;SDS011;70441;44.758;37.686;2024-03-22T01:10:20;22.85;;;9.73;;
78901;SDS011;70441;44.758;37.686;2024-03-22T01:11:22;21.77;;;9.20;;
78901;SDS011;70441;44.758;37.686;2024-03-22T01:12:23;21.38;;;9.45;;
78901;SDS011;70441;44.758;37.686;2024-03-22T01:13:24;22.60;;;8.48;;
78901;SDS011;70441;44.758;37.686;2024-03-22T01:14:26;21.73;;;9.32;;
78901;SDS011;70441;44.758;37.686;2024-03-22T01:15:28;21.10;;;9.25;;
78901;SDS011;70441;44.758;37.686;2024-03-22T01:16:29;23.40;;;9.65;;
78901;SDS011;70441;44.758;37.686;2024-03-22T01:17:31;24.83;;;9.90;;
78901;SDS011;70441;44.758;37.686;2024-03-22T01:18:32;24.00;;;10.00;;
78901;SDS011;70441;44.758;37.686;2024-03-22T01:19:33;20.40;;;9.10;;
78901;SDS011;70441;44.758;37.686;2024-03-22T01:20:35;16.85;;;7.75;;
78901;SDS011;70441;44.758;37.686;2024-03-22T01:21:37;22.50;;;10.73;;
78901;SDS011;70441;44.758;37.686;2024-03-22T01:22:38;21.98;;;10.25;;
78901;SDS011;70441;44.758;37.686;2024-03-22T01:24:42;22.08;;;8.90;;
78901;SDS011;70441;44.758;37.686;2024-03-22T01:25:44;23.70;;;9.63;;
78901;SDS011;70441;44.758;37.686;2024-03-22T01:26:46;19.17;;;9.07;;
78901;SDS011;70441;44.758;37.686;2024-03-22T01:27:47;24.38;;;10.40;;
78901;SDS011;70441;44.758;37.686;2024-03-22T01:28:49;21.00;;;10.02;;
78901;SDS011;70441;44.758;37.686;2024-03-22T01:29:50;22.67;;;10.98;;
78901;SDS011;70441;44.758;37.686;2024-03-22T01:30:52;23.30;;;10.38;;
78901;SDS011;70441;44.758;37.686;2024-03-22T01:31:53;21.17;;;9.60;;
78901;SDS011;70441;44.758;37.686;2024-03-22T01:32:54;20.20;;;10.50;;
78901;SDS011;70441;44.758;37.686;2024-03-22T01:33:56;22.35;;;11.07;;
78901;SDS011;70441;44.758;37.686;2024-03-22T01:34:58;20.42;;;9.77;;
78901;SDS011;70441;44.758;37.686;2024-03-22T01:35:59;19.85;;;9.68;;
78901;SDS011;70441;44.758;37.686;2024-03-22T01:37:01;29.48;;;12.32;;
78901;SDS011;70441;44.758;37.686;2024-03-22T01:38:04;22.80;;;10.13;;
78901;SDS011;70441;44.758;37.686;2024-03-22T01:39:05;22.23;;;11.05;;
78901;SDS011;70441;44.758;37.686;2024-03-22T01:40:08;21.73;;;10.20;;
78901;SDS011;70441;44.758;37.686;2024-03-22T01:41:09;24.85;;;11.13;;
78901;SDS011;70441;44.758;37.686;2024-03-22T01:43:13;19.02;;;9.48;;
78901;SDS011;70441;44.758;37.686;2024-03-22T01:44:15;21.88;;;9.57;;
78901;SDS011;70441;44.758;37.686;2024-03-22T01:45:16;17.25;;;8.07;;
78901;SDS011;70441;44.758;37.686;2024-03-22T01:46:18;24.85;;;11.20;;
78901;SDS011;70441;44.758;37.686;2024-03-22T01:47:19;25.10;;;10.63;;
78901;SDS011;70441;44.758;37.686;2024-03-22T01:48:22;24.45;;;11.75;;
78901;SDS011;70441;44.758;37.686;2024-03-22T01:49:24;19.20;;;8.55;;
78901;SDS011;70441;44.758;37.686;2024-03-22T01:50:26;21.88;;;9.35;;
78901;SDS011;70441;44.758;37.686;2024-03-22T01:51:28;24.67;;;11.50;;
78901;SDS011;70441;44.758;37.686;2024-03-22T01:52:30;24.90;;;12.18;;
78901;SDS011;70441;44.758;37.686;2024-03-22T01:53:32;24.45;;;12.13;;
78901;SDS011;70441;44.758;37.686;2024-03-22T01:54:35;25.65;;;12.52;;
78901;SDS011;70441;44.758;37.686;2024-03-22T01:55:36;26.48;;;11.93;;
78901;SDS011;70441;44.758;37.686;2024-03-22T01:56:38;25.23;;;12.40;;
78901;SDS011;70441;44.758;37.686;2024-03-22T01:57:40;24.63;;;12.20;;
78901;SDS011;70441;44.758;37.686;2024-03-22T01:58:47;23.98;;;11.52;;
78901;SDS011;70441;44.758;37.686;2024-03-22T01:59:49;22.27;;;10.50;;
78901;SDS011;70441;44.758;37.686;2024-03-22T02:00:52;24.10;;;11.68;;
78901;SDS011;70441;44.758;37.686;2024-03-22T02:01:53;25.65;;;9.43;;
78901;SDS011;70441;44.758;37.686;2024-03-22T02:02:55;21.23;;;10.50;;
78901;SDS011;70441;44.758;37.686;2024-03-22T02:03:57;21.58;;;10.52;;
78901;SDS011;70441;44.758;37.686;2024-03-22T02:04:58;22.50;;;11.57;;
78901;SDS011;70441;44.758;37.686;2024-03-22T02:05:59;24.45;;;10.70;;
78901;SDS011;70441;44.758;37.686;2024-03-22T02:07:01;23.67;;;10.60;;
78901;SDS011;70441;44.758;37.686;2024-03-22T02:08:02;25.83;;;11.85;;
78901;SDS011;70441;44.758;37.686;2024-03-22T02:09:04;21.38;;;10.50;;
78901;SDS011;70441;44.758;37.686;2024-03-22T02:10:06;24.40;;;10.60;;
78901;SDS011;70441;44.758;37.686;2024-03-22T02:11:08;22.17;;;10.85;;
78901;SDS011;70441;44.758;37.686;2024-03-22T02:12:10;21.48;;;10.98;;
78901;SDS011;70441;44.758;37.686;2024-03-22T02:13:12;22.38;;;10.18;;
78901;SDS011;70441;44.758;37.686;2024-03-22T02:14:13;22.98;;;10.05;;
78901;SDS011;70441;44.758;37.686;2024-03-22T02:15:15;21.90;;;9.63;;
78901;SDS011;70441;44.758;37.686;2024-03-22T02:16:16;27.60;;;10.50;;
78901;SDS011;70441;44.758;37.686;2024-03-22T02:17:18;21.15;;;9.57;;
78901;SDS011;70441;44.758;37.686;2024-03-22T02:18:19;20.23;;;10.00;;
78901;SDS011;70441;44.758;37.686;2024-03-22T02:19:21;20.10;;;10.18;;
78901;SDS011;70441;44.758;37.686;2024-03-22T02:20:22;19.95;;;8.05;;
78901;SDS011;70441;44.758;37.686;2024-03-22T02:21:23;19.83;;;9.00;;
78901;SDS011;70441;44.758;37.686;2024-03-22T02:22:25;19.95;;;8.95;;
78901;SDS011;70441;44.758;37.686;2024-03-22T02:23:34;21.15;;;9.05;;
78901;SDS011;70441;44.758;37.686;2024-03-22T02:24:36;22.75;;;9.70;;
78901;SDS011;70441;44.758;37.686;2024-03-22T02:25:37;19.70;;;8.40;;
78901;SDS011;70441;44.758;37.686;2024-03-22T02:26:39;21.30;;;10.52;;
78901;SDS011;70441;44.758;37.686;2024-03-22T02:27:41;21.08;;;9.82;;
78901;SDS011;70441;44.758;37.686;2024-03-22T02:28:42;19.75;;;9.25;;
78901;SDS011;70441;44.758;37.686;2024-03-22T02:29:44;22.45;;;10.75;;
78901;SDS011;70441;44.758;37.686;2024-03-22T02:30:45;19.73;;;8.05;;
78901;SDS011;70441;44.758;37.686;2024-03-22T02:31:46;21.42;;;9.63;;
78901;SDS011;70441;44.758;37.686;2024-03-22T02:32:48;28.40;;;13.18;;
78901;SDS011;70441;44.758;37.686;2024-03-22T02:33:49;24.75;;;10.63;;
78901;SDS011;70441;44.758;37.686;2024-03-22T02:34:50;23.85;;;9.25;;
78901;SDS011;70441;44.758;37.686;2024-03-22T02:35:52;25.55;;;10.20;;
78901;SDS011;70441;44.758;37.686;2024-03-22T02:36:53;24.33;;;10.05;;
78901;SDS011;70441;44.758;37.686;2024-03-22T02:37:55;22.88;;;11.13;;
78901;SDS011;70441;44.758;37.686;2024-03-22T02:38:59;25.50;;;11.02;;
78901;SDS011;70441;44.758;37.686;2024-03-22T02:41:02;27.45;;;11.88;;
78901;SDS011;70441;44.758;37.686;2024-03-22T02:42:04;20.90;;;10.02;;
78901;SDS011;70441;44.758;37.686;2024-03-22T02:43:06;25.08;;;10.68;;
78901;SDS011;70441;44.758;37.686;2024-03-22T02:44:07;25.67;;;12.40;;
78901;SDS011;70441;44.758;37.686;2024-03-22T02:45:08;26.40;;;10.85;;
78901;SDS011;70441;44.758;37.686;2024-03-22T02:46:10;25.77;;;11.13;;
78901;SDS011;70441;44.758;37.686;2024-03-22T02:47:11;26.63;;;12.38;;
78901;SDS011;70441;44.758;37.686;2024-03-22T02:48:16;25.15;;;11.00;;
78901;SDS011;70441;44.758;37.686;2024-03-22T02:49:18;24.75;;;10.75;;
78901;SDS011;70441;44.758;37.686;2024-03-22T02:50:19;24.83;;;11.20;;
78901;SDS011;70441;44.758;37.686;2024-03-22T02:51:20;22.60;;;10.27;;
78901;SDS011;70441;44.758;37.686;2024-03-22T02:52:22;23.15;;;9.98;;
78901;SDS011;70441;44.758;37.686;2024-03-22T02:53:23;23.50;;;10.65;;
78901;SDS011;70441;44.758;37.686;2024-03-22T02:54:25;24.60;;;11.15;;
78901;SDS011;70441;44.758;37.686;2024-03-22T02:55:26;23.08;;;10.98;;
78901;SDS011;70441;44.758;37.686;2024-03-22T02:56:28;19.80;;;8.15;;
78901;SDS011;70441;44.758;37.686;2024-03-22T02:57:29;24.08;;;10.20;;
78901;SDS011;70441;44.758;37.686;2024-03-22T02:58:30;23.73;;;10.75;;
78901;SDS011;70441;44.758;37.686;2024-03-22T02:59:32;26.38;;;12.05;;
78901;SDS011;70441;44.758;37.686;2024-03-22T03:00:39;27.38;;;12.90;;
78901;SDS011;70441;44.758;37.686;2024-03-22T03:01:41;15.75;;;7.82;;
78901;SDS011;70441;44.758;37.686;2024-03-22T03:02:42;20.23;;;8.80;;
78901;SDS011;70441;44.758;37.686;2024-03-22T03:03:43;20.85;;;10.63;;
78901;SDS011;70441;44.758;37.686;2024-03-22T03:04:45;25.52;;;11.32;;
78901;SDS011;70441;44.758;37.686;2024-03-22T03:05:46;25.30;;;10.98;;
78901;SDS011;70441;44.758;37.686;2024-03-22T03:06:48;21.88;;;10.80;;
78901;SDS011;70441;44.758;37.686;2024-03-22T03:07:49;22.35;;;10.82;;
78901;SDS011;70441;44.758;37.686;2024-03-22T03:08:51;23.25;;;11.07;;
78901;SDS011;70441;44.758;37.686;2024-03-22T03:09:52;26.48;;;11.15;;
78901;SDS011;70441;44.758;37.686;2024-03-22T03:10:54;23.92;;;10.63;;
78901;SDS011;70441;44.758;37.686;2024-03-22T03:11:55;22.58;;;9.68;;
78901;SDS011;70441;44.758;37.686;2024-03-22T03:12:57;21.17;;;8.75;;
78901;SDS011;70441;44.758;37.686;2024-03-22T03:13:59;23.05;;;10.30;;
78901;SDS011;70441;44.758;37.686;2024-03-22T03:16:04;21.92;;;9.90;;
78901;SDS011;70441;44.758;37.686;2024-03-22T03:17:06;21.83;;;9.30;;
78901;SDS011;70441;44.758;37.686;2024-03-22T03:18:08;23.08;;;10.75;;
78901;SDS011;70441;44.758;37.686;2024-03-22T03:19:09;22.23;;;10.93;;
78901;SDS011;70441;44.758;37.686;2024-03-22T03:20:11;21.23;;;9.93;;
78901;SDS011;70441;44.758;37.686;2024-03-22T03:21:14;22.13;;;9.93;;
78901;SDS011;70441;44.758;37.686;2024-03-22T03:22:16;19.80;;;10.52;;
78901;SDS011;70441;44.758;37.686;2024-03-22T03:23:17;20.88;;;10.20;;
78901;SDS011;70441;44.758;37.686;2024-03-22T03:24:19;20.35;;;9.18;;
78901;SDS011;70441;44.758;37.686;2024-03-22T03:25:20;22.67;;;9.93;;
78901;SDS011;70441;44.758;37.686;2024-03-22T03:26:21;22.98;;;9.80;;
78901;SDS011;70441;44.758;37.686;2024-03-22T03:27:23;20.65;;;9.07;;
78901;SDS011;70441;44.758;37.686;2024-03-22T03:28:24;16.63;;;8.07;;
78901;SDS011;70441;44.758;37.686;2024-03-22T03:29:26;21.63;;;9.98;;
78901;SDS011;70441;44.758;37.686;2024-03-22T03:30:28;24.40;;;9.93;;
78901;SDS011;70441;44.758;37.686;2024-03-22T03:31:29;22.88;;;9.73;;
78901;SDS011;70441;44.758;37.686;2024-03-22T03:32:31;21.30;;;10.80;;
78901;SDS011;70441;44.758;37.686;2024-03-22T03:33:32;20.00;;;9.60;;
78901;SDS011;70441;44.758;37.686;2024-03-22T03:34:34;20.52;;;10.45;;
78901;SDS011;70441;44.758;37.686;2024-03-22T03:35:35;20.98;;;10.40;;
78901;SDS011;70441;44.758;37.686;2024-03-22T03:36:37;20.70;;;9.93;;
78901;SDS011;70441;44.758;37.686;2024-03-22T03:37:40;21.35;;;10.45;;
78901;SDS011;70441;44.758;37.686;2024-03-22T03:38:41;22.30;;;9.85;;
78901;SDS011;70441;44.758;37.686;2024-03-22T03:39:43;23.10;;;10.25;;
78901;SDS011;70441;44.758;37.686;2024-03-22T03:40:44;22.98;;;9.73;;
78901;SDS011;70441;44.758;37.686;2024-03-22T03:41:46;21.08;;;9.68;;
78901;SDS011;70441;44.758;37.686;2024-03-22T03:42:47;21.65;;;10.00;;
78901;SDS011;70441;44.758;37.686;2024-03-22T03:43:49;22.95;;;10.38;;
78901;SDS011;70441;44.758;37.686;2024-03-22T03:44:50;22.10;;;9.93;;
78901;SDS011;70441;44.758;37.686;2024-03-22T03:45:55;23.30;;;11.05;;
78901;SDS011;70441;44.758;37.686;2024-03-22T03:46:58;20.33;;;9.80;;
78901;SDS011;70441;44.758;37.686;2024-03-22T03:48:01;20.70;;;9.40;;
78901;SDS011;70441;44.758;37.686;2024-03-22T03:49:03;21.52;;;10.43;;
78901;SDS011;70441;44.758;37.686;2024-03-22T03:50:04;18.98;;;9.13;;
78901;SDS011;70441;44.758;37.686;2024-03-22T03:51:07;22.50;;;9.45;;
78901;SDS011;70441;44.758;37.686;2024-03-22T03:52:09;19.50;;;8.75;;
78901;SDS011;70441;44.758;37.686;2024-03-22T03:53:10;25.42;;;10.18;;
78901;SDS011;70441;44.758;37.686;2024-03-22T03:54:11;21.77;;;9.32;;
78901;SDS011;70441;44.758;37.686;2024-03-22T03:55:13;21.75;;;10.30;;
78901;SDS011;70441;44.758;37.686;2024-03-22T03:56:15;19.17;;;9.75;;
78901;SDS011;70441;44.758;37.686;2024-03-22T03:57:16;21.35;;;9.82;;
78901;SDS011;70441;44.758;37.686;2024-03-22T03:58:18;25.20;;;9.90;;
78901;SDS011;70441;44.758;37.686;2024-03-22T03:59:19;19.02;;;9.95;;
78901;SDS011;70441;44.758;37.686;2024-03-22T04:00:21;20.83;;;10.40;;
78901;SDS011;70441;44.758;37.686;2024-03-22T04:01:22;21.08;;;10.27;;
78901;SDS011;70441;44.758;37.686;2024-03-22T04:02:24;25.83;;;10.00;;
78901;SDS011;70441;44.758;37.686;2024-03-22T04:03:25;20.42;;;9.65;;
78901;SDS011;70441;44.758;37.686;2024-03-22T04:04:27;21.73;;;8.98;;
78901;SDS011;70441;44.758;37.686;2024-03-22T04:05:29;16.73;;;8.63;;
78901;SDS011;70441;44.758;37.686;2024-03-22T04:06:30;15.43;;;7.57;;
78901;SDS011;70441;44.758;37.686;2024-03-22T04:07:31;19.05;;;7.85;;
78901;SDS011;70441;44.758;37.686;2024-03-22T04:08:33;19.23;;;8.30;;
78901;SDS011;70441;44.758;37.686;2024-03-22T04:09:35;17.63;;;7.45;;
78901;SDS011;70441;44.758;37.686;2024-03-22T04:10:36;10.02;;;4.65;;
78901;SDS011;70441;44.758;37.686;2024-03-22T04:11:37;13.82;;;6.38;;
78901;SDS011;70441;44.758;37.686;2024-03-22T04:12:39;15.85;;;7.15;;
78901;SDS011;70441;44.758;37.686;2024-03-22T04:13:40;15.07;;;6.22;;
78901;SDS011;70441;44.758;37.686;2024-03-22T04:14:41;14.90;;;6.22;;
78901;SDS011;70441;44.758;37.686;2024-03-22T04:15:43;13.77;;;5.80;;
78901;SDS011;70441;44.758;37.686;2024-03-22T04:16:44;14.02;;;6.47;;
78901;SDS011;70441;44.758;37.686;2024-03-22T04:17:47;14.10;;;6.85;;
78901;SDS011;70441;44.758;37.686;2024-03-22T04:18:48;17.27;;;6.78;;
78901;SDS011;70441;44.758;37.686;2024-03-22T04:19:50;14.52;;;6.80;;
78901;SDS011;70441;44.758;37.686;2024-03-22T04:20:57;15.55;;;6.28;;
78901;SDS011;70441;44.758;37.686;2024-03-22T04:22:00;14.05;;;6.13;;
78901;SDS011;70441;44.758;37.686;2024-03-22T04:23:01;14.85;;;6.63;;
78901;SDS011;70441;44.758;37.686;2024-03-22T04:24:02;14.93;;;6.40;;
78901;SDS011;70441;44.758;37.686;2024-03-22T04:25:05;13.57;;;6.93;;
78901;SDS011;70441;44.758;37.686;2024-03-22T04:26:07;14.82;;;6.68;;
78901;SDS011;70441;44.758;37.686;2024-03-22T04:27:08;12.98;;;5.50;;
78901;SDS011;70441;44.758;37.686;2024-03-22T04:28:10;13.60;;;5.75;;
78901;SDS011;70441;44.758;37.686;2024-03-22T04:29:11;13.93;;;5.82;;
78901;SDS011;70441;44.758;37.686;2024-03-22T04:30:13;14.43;;;6.97;;
78901;SDS011;70441;44.758;37.686;2024-03-22T04:31:14;14.25;;;6.72;;
78901;SDS011;70441;44.758;37.686;2024-03-22T04:32:16;14.48;;;6.22;;
78901;SDS011;70441;44.758;37.686;2024-03-22T04:33:18;15.35;;;6.32;;
78901;SDS011;70441;44.758;37.686;2024-03-22T04:34:20;14.73;;;6.53;;
78901;SDS011;70441;44.758;37.686;2024-03-22T04:35:21;15.75;;;7.07;;
78901;SDS011;70441;44.758;37.686;2024-03-22T04:36:22;16.17;;;6.85;;
78901;SDS011;70441;44.758;37.686;2024-03-22T04:37:24;16.15;;;6.28;;
78901;SDS011;70441;44.758;37.686;2024-03-22T04:38:26;14.25;;;6.75;;
78901;SDS011;70441;44.758;37.686;2024-03-22T04:39:28;15.02;;;7.18;;
78901;SDS011;70441;44.758;37.686;2024-03-22T04:40:30;14.85;;;6.70;;
78901;SDS011;70441;44.758;37.686;2024-03-22T04:41:31;13.18;;;6.20;;
78901;SDS011;70441;44.758;37.686;2024-03-22T04:42:32;14.55;;;6.72;;
78901;SDS011;70441;44.758;37.686;2024-03-22T04:43:35;13.00;;;6.22;;
78901;SDS011;70441;44.758;37.686;2024-03-22T04:44:36;13.25;;;6.43;;
78901;SDS011;70441;44.758;37.686;2024-03-22T04:45:38;15.00;;;6.85;;
78901;SDS011;70441;44.758;37.686;2024-03-22T04:46:39;15.50;;;6.90;;
78901;SDS011;70441;44.758;37.686;2024-03-22T04:47:41;13.70;;;6.65;;
78901;SDS011;70441;44.758;37.686;2024-03-22T04:48:43;15.77;;;7.57;;
78901;SDS011;70441;44.758;37.686;2024-03-22T04:49:45;12.52;;;6.25;;
78901;SDS011;70441;44.758;37.686;2024-03-22T04:50:46;15.38;;;7.05;;
78901;SDS011;70441;44.758;37.686;2024-03-22T04:51:50;15.70;;;6.80;;
78901;SDS011;70441;44.758;37.686;2024-03-22T04:52:52;14.48;;;6.88;;
78901;SDS011;70441;44.758;37.686;2024-03-22T04:53:53;16.05;;;7.80;;
78901;SDS011;70441;44.758;37.686;2024-03-22T04:54:54;15.15;;;6.45;;
78901;SDS011;70441;44.758;37.686;2024-03-22T04:55:57;13.27;;;7.00;;
78901;SDS011;70441;44.758;37.686;2024-03-22T04:56:58;14.82;;;6.25;;
78901;SDS011;70441;44.758;37.686;2024-03-22T04:58:00;16.25;;;7.00;;
78901;SDS011;70441;44.758;37.686;2024-03-22T04:59:02;13.02;;;5.88;;
78901;SDS011;70441;44.758;37.686;2024-03-22T05:00:03;14.93;;;7.60;;
78901;SDS011;70441;44.758;37.686;2024-03-22T05:01:07;15.73;;;7.30;;
78901;SDS011;70441;44.758;37.686;2024-03-22T05:02:09;15.45;;;7.18;;
78901;SDS011;70441;44.758;37.686;2024-03-22T05:03:10;16.20;;;7.72;;
78901;SDS011;70441;44.758;37.686;2024-03-22T05:04:12;16.27;;;7.65;;
78901;SDS011;70441;44.758;37.686;2024-03-22T05:05:14;17.92;;;8.07;;
78901;SDS011;70441;44.758;37.686;2024-03-22T05:06:15;16.75;;;7.45;;
78901;SDS011;70441;44.758;37.686;2024-03-22T05:07:17;15.93;;;7.13;;
78901;SDS011;70441;44.758;37.686;2024-03-22T05:08:18;16.85;;;7.97;;
78901;SDS011;70441;44.758;37.686;2024-03-22T05:09:20;15.82;;;7.32;;
78901;SDS011;70441;44.758;37.686;2024-03-22T05:10:21;19.45;;;7.55;;
78901;SDS011;70441;44.758;37.686;2024-03-22T05:11:23;16.27;;;7.30;;
78901;SDS011;70441;44.758;37.686;2024-03-22T05:12:25;15.52;;;8.38;;
78901;SDS011;70441;44.758;37.686;2024-03-22T05:13:26;15.35;;;7.32;;
78901;SDS011;70441;44.758;37.686;2024-03-22T05:14:28;15.70;;;6.78;;
78901;SDS011;70441;44.758;37.686;2024-03-22T05:15:29;14.10;;;7.45;;
78901;SDS011;70441;44.758;37.686;2024-03-22T05:16:31;15.07;;;7.18;;
78901;SDS011;70441;44.758;37.686;2024-03-22T05:17:34;16.23;;;7.35;;
78901;SDS011;70441;44.758;37.686;2024-03-22T05:18:35;17.67;;;7.72;;
78901;SDS011;70441;44.758;37.686;2024-03-22T05:19:36;16.13;;;8.38;;
78901;SDS011;70441;44.758;37.686;2024-03-22T05:20:38;16.88;;;8.10;;
78901;SDS011;70441;44.758;37.686;2024-03-22T05:21:39;15.20;;;7.57;;
78901;SDS011;70441;44.758;37.686;2024-03-22T05:22:40;13.25;;;6.43;;
78901;SDS011;70441;44.758;37.686;2024-03-22T05:23:43;16.30;;;6.72;;
78901;SDS011;70441;44.758;37.686;2024-03-22T05:24:44;14.90;;;6.45;;
78901;SDS011;70441;44.758;37.686;2024-03-22T05:25:45;11.88;;;6.22;;
78901;SDS011;70441;44.758;37.686;2024-03-22T05:26:47;9.77;;;3.70;;
78901;SDS011;70441;44.758;37.686;2024-03-22T05:27:48;16.60;;;7.43;;
78901;SDS011;70441;44.758;37.686;2024-03-22T05:28:50;11.63;;;5.15;;
78901;SDS011;70441;44.758;37.686;2024-03-22T05:29:51;13.15;;;5.97;;
78901;SDS011;70441;44.758;37.686;2024-03-22T05:30:53;11.00;;;5.45;;
78901;SDS011;70441;44.758;37.686;2024-03-22T05:31:54;12.05;;;5.63;;
78901;SDS011;70441;44.758;37.686;2024-03-22T05:32:56;12.90;;;5.93;;
78901;SDS011;70441;44.758;37.686;2024-03-22T05:33:59;12.48;;;5.78;;
78901;SDS011;70441;44.758;37.686;2024-03-22T05:35:00;12.77;;;5.97;;
78901;SDS011;70441;44.758;37.686;2024-03-22T05:36:02;12.43;;;5.50;;
78901;SDS011;70441;44.758;37.686;2024-03-22T05:37:04;13.82;;;6.40;;
78901;SDS011;70441;44.758;37.686;2024-03-22T05:38:05;11.80;;;6.72;;
78901;SDS011;70441;44.758;37.686;2024-03-22T05:39:06;13.27;;;5.53;;
78901;SDS011;70441;44.758;37.686;2024-03-22T05:40:08;17.73;;;6.50;;
78901;SDS011;70441;44.758;37.686;2024-03-22T05:41:10;12.00;;;6.05;;
78901;SDS011;70441;44.758;37.686;2024-03-22T05:42:12;11.60;;;6.05;;
78901;SDS011;70441;44.758;37.686;2024-03-22T05:43:14;14.73;;;5.85;;
78901;SDS011;70441;44.758;37.686;2024-03-22T05:45:18;14.10;;;5.97;;
78901;SDS011;70441;44.758;37.686;2024-03-22T05:46:19;14.15;;;5.97;;
78901;SDS011;70441;44.758;37.686;2024-03-22T05:47:22;12.23;;;5.57;;
78901;SDS011;70441;44.758;37.686;2024-03-22T05:48:23;10.18;;;4.20;;
78901;SDS011;70441;44.758;37.686;2024-03-22T05:49:24;12.32;;;5.20;;
78901;SDS011;70441;44.758;37.686;2024-03-22T05:50:27;12.27;;;5.45;;
78901;SDS011;70441;44.758;37.686;2024-03-22T05:51:28;15.25;;;6.28;;
78901;SDS011;70441;44.758;37.686;2024-03-22T05:52:32;12.68;;;5.40;;
78901;SDS011;70441;44.758;37.686;2024-03-22T05:53:34;11.38;;;5.40;;
78901;SDS011;70441;44.758;37.686;2024-03-22T05:54:35;13.50;;;6.25;;
78901;SDS011;70441;44.758;37.686;2024-03-22T05:55:37;12.23;;;5.97;;
78901;SDS011;70441;44.758;37.686;2024-03-22T05:56:39;12.60;;;5.40;;
78901;SDS011;70441;44.758;37.686;2024-03-22T05:57:40;11.35;;;5.40;;
78901;SDS011;70441;44.758;37.686;2024-03-22T05:58:43;10.15;;;5.22;;
78901;SDS011;70441;44.758;37.686;2024-03-22T05:59:45;10.65;;;4.82;;
78901;SDS011;70441;44.758;37.686;2024-03-22T06:00:46;10.80;;;4.90;;
78901;SDS011;70441;44.758;37.686;2024-03-22T06:01:49;10.43;;;4.63;;
78901;SDS011;70441;44.758;37.686;2024-03-22T06:02:50;11.10;;;4.90;;
78901;SDS011;70441;44.758;37.686;2024-03-22T06:03:51;10.25;;;3.97;;
78901;SDS011;70441;44.758;37.686;2024-03-22T06:04:53;7.25;;;3.50;;